createdAt,value
2019-05-20T00:00:24.456Z,922.8
2019-05-20T00:01:25.578Z,922.7
2019-05-20T00:02:33.916Z,922.8
2019-05-20T00:03:28.248Z,922.8
2019-05-20T00:04:28.998Z,922.8
2019-05-20T00:05:30.167Z,922.8
2019-05-20T00:06:31.536Z,922.8
2019-05-20T00:07:32.945Z,922.7
2019-05-20T00:08:34.348Z,922.8
2019-05-20T00:09:35.760Z,922.8
2019-05-20T00:10:37.129Z,922.8
2019-05-20T00:11:38.258Z,922.7
2019-05-20T00:12:39.405Z,922.8
2019-05-20T00:13:40.527Z,922.7
2019-05-20T00:14:41.284Z,922.7
2019-05-20T00:15:42.720Z,922.8
2019-05-20T00:16:44.114Z,922.8
2019-05-20T00:17:45.546Z,922.8
2019-05-20T00:18:46.932Z,922.8
2019-05-20T00:19:50.711Z,922.7
2019-05-20T00:20:49.205Z,922.8
2019-05-20T00:21:50.322Z,922.7
2019-05-20T00:22:51.463Z,922.8
2019-05-20T00:23:52.592Z,922.7
2019-05-20T00:24:53.358Z,922.7
2019-05-20T00:25:54.736Z,922.8
2019-05-20T00:26:56.132Z,922.8
2019-05-20T00:28:00.489Z,922.7
2019-05-20T00:28:58.866Z,922.8
2019-05-20T00:30:00.261Z,922.7
2019-05-20T00:31:01.655Z,922.8
2019-05-20T00:32:03.062Z,922.7
2019-05-20T00:33:04.490Z,922.8
2019-05-20T00:34:05.889Z,922.7
2019-05-20T00:35:06.768Z,922.7
2019-05-20T00:36:08.184Z,922.6
2019-05-20T00:37:09.563Z,922.8
2019-05-20T00:38:10.980Z,922.7
2019-05-20T00:39:12.403Z,922.6
2019-05-20T00:40:13.772Z,922.8
2019-05-20T00:41:15.212Z,922.7
2019-05-20T00:42:16.596Z,922.6
2019-05-20T00:43:18.018Z,922.7
2019-05-20T00:44:19.404Z,922.7
2019-05-20T00:45:20.166Z,922.7
2019-05-20T00:46:21.562Z,922.7
2019-05-20T00:47:22.953Z,922.7
2019-05-20T00:48:24.367Z,922.7
2019-05-20T00:49:25.757Z,922.6
2019-05-20T00:50:26.885Z,922.6
2019-05-20T00:51:28.005Z,922.7
2019-05-20T00:52:29.425Z,922.7
2019-05-20T00:53:30.819Z,922.8
2019-05-20T00:54:32.212Z,922.7
2019-05-20T00:55:32.963Z,922.6
2019-05-20T00:56:34.109Z,922.6
2019-05-20T00:57:35.248Z,922.7
2019-05-20T00:58:36.379Z,922.7
2019-05-20T00:59:37.533Z,922.6
2019-05-20T01:00:38.995Z,922.8
2019-05-20T01:01:40.361Z,922.6
2019-05-20T01:02:54.728Z,922.7
2019-05-20T01:03:41.945Z,921.6
2019-05-20T01:04:43.077Z,922.7
2019-05-20T01:05:43.882Z,922.7
2019-05-20T01:06:45.233Z,922.5
2019-05-20T01:07:46.372Z,922.5
2019-05-20T01:08:47.517Z,922.7
2019-05-20T01:09:48.975Z,922.7
2019-05-20T01:10:50.364Z,922.7
2019-05-20T01:11:51.759Z,922.6
2019-05-20T01:12:53.199Z,922.7
2019-05-20T01:13:54.591Z,922.5
2019-05-20T01:14:55.992Z,922.7
2019-05-20T01:15:56.783Z,922.7
2019-05-20T01:16:57.907Z,922.7
2019-05-20T01:17:59.054Z,922.7
2019-05-20T01:19:00.180Z,922.7
2019-05-20T01:20:01.312Z,922.6
2019-05-20T01:21:02.448Z,922.6
2019-05-20T01:22:03.571Z,922.7
2019-05-20T01:23:04.967Z,922.6
2019-05-20T01:24:06.097Z,922.6
2019-05-20T01:25:07.487Z,922.7
2019-05-20T01:26:08.261Z,922.6
2019-05-20T01:27:09.649Z,922.6
2019-05-20T01:28:11.086Z,922.5
2019-05-20T01:29:12.463Z,922.6
2019-05-20T01:30:13.859Z,922.5
2019-05-20T01:31:15.265Z,922.6
2019-05-20T01:32:16.641Z,921.3
2019-05-20T01:33:19.895Z,922.6
2019-05-20T01:34:19.265Z,922.7
2019-05-20T01:35:20.661Z,922.7
2019-05-20T01:36:21.450Z,922.7
2019-05-20T01:37:22.841Z,922.7
2019-05-20T01:38:23.997Z,922.7
2019-05-20T01:39:25.393Z,922.6
2019-05-20T01:40:26.777Z,922.7
2019-05-20T01:41:28.174Z,921.4
2019-05-20T01:42:29.567Z,922.7
2019-05-20T01:43:30.971Z,922.7
2019-05-20T01:44:32.375Z,922.6
2019-05-20T01:45:33.765Z,922.7
2019-05-20T01:46:34.525Z,922.6
2019-05-20T01:47:35.935Z,922.7
2019-05-20T01:48:37.077Z,922.6
2019-05-20T01:49:38.485Z,922.6
2019-05-20T01:50:39.871Z,922.7
2019-05-20T01:51:41.274Z,922.6
2019-05-20T01:52:42.661Z,922.5
2019-05-20T01:53:44.077Z,922.7
2019-05-20T01:54:45.475Z,922.7
2019-05-20T01:55:46.869Z,922.7
2019-05-20T01:56:47.368Z,922.6
2019-05-20T01:57:48.557Z,922.7
2019-05-20T01:58:49.920Z,922.6
2019-05-20T01:59:51.304Z,922.7
2019-05-20T02:00:52.701Z,922.7
2019-05-20T02:01:54.090Z,922.5
2019-05-20T02:02:55.499Z,922.6
2019-05-20T02:03:56.626Z,922.6
2019-05-20T02:04:57.762Z,922.6
2019-05-20T02:05:58.885Z,922.5
2019-05-20T02:06:59.658Z,922.6
2019-05-20T02:08:01.061Z,922.6
2019-05-20T02:09:02.193Z,922.6
2019-05-20T02:10:03.335Z,922.6
2019-05-20T02:11:04.500Z,922.6
2019-05-20T02:12:05.601Z,922.5
2019-05-20T02:13:06.741Z,922.5
2019-05-20T02:14:07.877Z,922.5
2019-05-20T02:15:09.002Z,922.5
2019-05-20T02:16:10.129Z,922.5
2019-05-20T02:17:10.910Z,922.4
2019-05-20T02:18:12.297Z,922.6
2019-05-20T02:19:13.435Z,922.5
2019-05-20T02:20:14.556Z,922.5
2019-05-20T02:21:15.958Z,922.3
2019-05-20T02:22:17.345Z,922.5
2019-05-20T02:23:18.491Z,922.4
2019-05-20T02:24:19.617Z,922.5
2019-05-20T02:25:20.743Z,922.4
2019-05-20T02:26:21.870Z,922.4
2019-05-20T02:27:22.687Z,920.7
2019-05-20T02:28:24.094Z,921.6
2019-05-20T02:29:25.479Z,922.3
2019-05-20T02:30:26.872Z,922.3
2019-05-20T02:31:30.741Z,922.3
2019-05-20T02:32:29.071Z,922.3
2019-05-20T02:33:47.756Z,922.3
2019-05-20T02:34:31.045Z,922.3
2019-05-20T02:35:32.435Z,922.3
2019-05-20T02:36:33.832Z,922.4
2019-05-20T02:37:34.605Z,922.3
2019-05-20T02:38:36.094Z,922.3
2019-05-20T02:39:37.493Z,922.4
2019-05-20T02:40:38.970Z,922.4
2019-05-20T02:41:40.365Z,922.3
2019-05-20T02:42:41.761Z,922.4
2019-05-20T02:43:43.174Z,922.3
2019-05-20T02:44:44.566Z,922.3
2019-05-20T02:45:45.684Z,922.3
2019-05-20T02:46:46.854Z,922.4
2019-05-20T02:47:47.573Z,922.4
2019-05-20T02:48:48.997Z,922.1
2019-05-20T02:49:50.112Z,922.4
2019-05-20T02:50:51.247Z,922.3
2019-05-20T02:51:52.660Z,922.3
2019-05-20T02:52:54.044Z,922.3
2019-05-20T02:53:55.200Z,922.2
2019-05-20T02:54:56.603Z,922.3
2019-05-20T02:55:57.994Z,922.3
2019-05-20T02:56:59.391Z,922.2
2019-05-20T02:58:02.623Z,922.2
2019-05-20T02:59:00.975Z,922.2
2019-05-20T03:00:02.376Z,922.1
2019-05-20T03:01:03.768Z,922.2
2019-05-20T03:02:05.168Z,922.1
2019-05-20T03:03:06.293Z,922.1
2019-05-20T03:04:12.773Z,922.1
2019-05-20T03:05:08.280Z,922.2
2019-05-20T03:06:09.672Z,922.2
2019-05-20T03:07:11.074Z,922.2
2019-05-20T03:08:11.829Z,922.2
2019-05-20T03:09:17.998Z,922
2019-05-20T03:10:14.354Z,922.2
2019-05-20T03:11:15.754Z,922.1
2019-05-20T03:12:17.157Z,922.1
2019-05-20T03:13:18.539Z,922
2019-05-20T03:14:19.984Z,922.1
2019-05-20T03:15:21.349Z,922.1
2019-05-20T03:16:22.470Z,922.1
2019-05-20T03:17:26.668Z,920.5
2019-05-20T03:18:24.415Z,922
2019-05-20T03:19:25.814Z,922.1
2019-05-20T03:20:27.214Z,922.1
2019-05-20T03:21:28.343Z,920.5
2019-05-20T03:22:29.465Z,922.1
2019-05-20T03:23:30.891Z,922.2
2019-05-20T03:24:32.276Z,922.1
2019-05-20T03:25:33.679Z,922
2019-05-20T03:26:35.072Z,922.1
2019-05-20T03:27:36.470Z,922
2019-05-20T03:28:37.267Z,922.1
2019-05-20T03:29:38.631Z,921.2
2019-05-20T03:30:40.027Z,922
2019-05-20T03:31:41.160Z,922
2019-05-20T03:32:42.579Z,922
2019-05-20T03:33:43.715Z,922
2019-05-20T03:35:04.636Z,922
2019-05-20T03:35:45.845Z,922.1
2019-05-20T03:36:47.239Z,922.1
2019-05-20T03:37:48.640Z,922
2019-05-20T03:38:49.415Z,922
2019-05-20T03:39:50.802Z,922
2019-05-20T03:40:51.931Z,922
2019-05-20T03:41:53.334Z,922
2019-05-20T03:42:54.727Z,922
2019-05-20T03:43:55.864Z,922
2019-05-20T03:44:56.994Z,922
2019-05-20T03:45:58.131Z,921.9
2019-05-20T03:46:59.298Z,922
2019-05-20T03:48:00.680Z,922
2019-05-20T03:49:01.463Z,922
2019-05-20T03:50:02.879Z,921.9
2019-05-20T03:51:03.990Z,921.9
2019-05-20T03:52:05.389Z,921.8
2019-05-20T03:53:06.780Z,921.9
2019-05-20T03:54:07.946Z,921.9
2019-05-20T03:55:09.333Z,921.9
2019-05-20T03:56:10.758Z,921.9
2019-05-20T03:57:12.127Z,921.9
2019-05-20T03:58:14.126Z,921.8
2019-05-20T03:59:13.955Z,921.9
2019-05-20T04:00:15.347Z,921.9
2019-05-20T04:01:16.754Z,922
2019-05-20T04:02:18.153Z,921.9
2019-05-20T04:03:19.608Z,921.9
2019-05-20T04:04:24.687Z,921.9
2019-05-20T04:05:22.357Z,921.9
2019-05-20T04:06:23.798Z,921.9
2019-05-20T04:07:25.152Z,921.7
2019-05-20T04:08:26.545Z,921.8
2019-05-20T04:09:27.342Z,921.3
2019-05-20T04:10:28.737Z,921.9
2019-05-20T04:11:29.854Z,921.8
2019-05-20T04:12:30.986Z,921.9
2019-05-20T04:13:34.612Z,921.8
2019-05-20T04:14:32.865Z,921.8
2019-05-20T04:15:34.279Z,921.8
2019-05-20T04:16:35.662Z,921.8
2019-05-20T04:17:37.061Z,921.8
2019-05-20T04:18:38.450Z,921.6
2019-05-20T04:19:39.236Z,921.8
2019-05-20T04:20:40.366Z,921.8
2019-05-20T04:21:41.495Z,921.8
2019-05-20T04:22:42.628Z,921.8
2019-05-20T04:23:44.202Z,921.8
2019-05-20T04:24:44.607Z,921.8
2019-05-20T04:25:45.736Z,921.8
2019-05-20T04:26:46.871Z,921.8
2019-05-20T04:27:47.998Z,921.9
2019-05-20T04:28:49.404Z,921.8
2019-05-20T04:29:50.167Z,921.8
2019-05-20T04:30:51.301Z,921.8
2019-05-20T04:31:52.451Z,921.8
2019-05-20T04:32:53.560Z,921.7
2019-05-20T04:33:54.946Z,920
2019-05-20T04:34:56.365Z,921.6
2019-05-20T04:35:57.766Z,921.7
2019-05-20T04:36:59.158Z,921.6
2019-05-20T04:38:00.622Z,921.8
2019-05-20T04:39:01.990Z,921.8
2019-05-20T04:40:02.763Z,921.7
2019-05-20T04:41:04.164Z,921.8
2019-05-20T04:42:06.817Z,921.7
2019-05-20T04:43:06.041Z,921.7
2019-05-20T04:44:07.175Z,921.8
2019-05-20T04:45:08.324Z,921.8
2019-05-20T04:46:09.717Z,921.8
2019-05-20T04:47:11.105Z,921.8
2019-05-20T04:48:13.786Z,921.8
2019-05-20T04:49:13.406Z,921.7
2019-05-20T04:50:13.922Z,921.8
2019-05-20T04:51:15.297Z,921.8
2019-05-20T04:52:16.693Z,921.9
2019-05-20T04:53:18.086Z,922
2019-05-20T04:54:19.482Z,921.9
2019-05-20T04:55:20.902Z,922
2019-05-20T04:56:22.299Z,921.9
2019-05-20T04:57:23.692Z,922
2019-05-20T04:58:25.079Z,921.9
2019-05-20T04:59:26.482Z,921.9
2019-05-20T05:00:27.265Z,921.9
2019-05-20T05:01:28.396Z,921.8
2019-05-20T05:02:29.523Z,921.8
2019-05-20T05:03:30.653Z,922
2019-05-20T05:04:32.049Z,922
2019-05-20T05:05:43.365Z,921.9
2019-05-20T05:06:34.671Z,921.9
2019-05-20T05:07:36.062Z,922.1
2019-05-20T05:08:37.478Z,922.1
2019-05-20T05:09:38.593Z,921.5
2019-05-20T05:10:39.402Z,922.2
2019-05-20T05:11:40.796Z,922.1
2019-05-20T05:12:42.194Z,921.9
2019-05-20T05:13:43.583Z,922.1
2019-05-20T05:14:44.984Z,921.8
2019-05-20T05:15:46.143Z,921.9
2019-05-20T05:16:47.523Z,921.9
2019-05-20T05:17:48.913Z,921.9
2019-05-20T05:18:50.309Z,921.8
2019-05-20T05:19:51.701Z,921.8
2019-05-20T05:20:52.229Z,921.8
2019-05-20T05:21:53.623Z,921.7
2019-05-20T05:22:55.019Z,921.8
2019-05-20T05:24:04.894Z,921.7
2019-05-20T05:24:56.937Z,921.9
2019-05-20T05:25:58.226Z,921.8
2019-05-20T05:26:59.654Z,921.8
2019-05-20T05:28:01.050Z,921.8
2019-05-20T05:29:02.450Z,921.8
2019-05-20T05:30:03.925Z,921.7
2019-05-20T05:31:04.697Z,921.7
2019-05-20T05:32:06.099Z,921.6
2019-05-20T05:33:07.270Z,921.7
2019-05-20T05:34:08.366Z,921.7
2019-05-20T05:35:09.491Z,921.7
2019-05-20T05:36:10.647Z,921.2
2019-05-20T05:37:11.774Z,921.7
2019-05-20T05:38:12.971Z,921.8
2019-05-20T05:39:14.339Z,921.7
2019-05-20T05:40:15.489Z,921.8
2019-05-20T05:41:16.255Z,921.8
2019-05-20T05:42:17.657Z,921.8
2019-05-20T05:43:18.781Z,921.8
2019-05-20T05:44:19.913Z,921.8
2019-05-20T05:45:21.044Z,921.8
2019-05-20T05:46:22.446Z,921.7
2019-05-20T05:47:23.845Z,921.8
2019-05-20T05:48:25.248Z,921.8
2019-05-20T05:49:26.636Z,921.8
2019-05-20T05:50:28.035Z,921.8
2019-05-20T05:51:28.818Z,921.9
2019-05-20T05:52:29.949Z,921.9
2019-05-20T05:53:31.338Z,921.9
2019-05-20T05:54:32.739Z,921.9
2019-05-20T05:55:34.129Z,921.9
2019-05-20T05:56:35.280Z,921.9
2019-05-20T05:57:36.405Z,921.9
2019-05-20T05:58:37.542Z,921.9
2019-05-20T05:59:38.664Z,921.9
2019-05-20T06:00:39.800Z,922
2019-05-20T06:01:40.576Z,921.9
2019-05-20T06:02:41.973Z,921.9
2019-05-20T06:03:43.104Z,922
2019-05-20T06:04:44.237Z,922
2019-05-20T06:05:45.361Z,922.1
2019-05-20T06:06:46.759Z,920.4
2019-05-20T06:07:48.165Z,922
2019-05-20T06:08:49.562Z,922
2019-05-20T06:09:50.955Z,922
2019-05-20T06:10:52.355Z,922
2019-05-20T06:11:53.137Z,921.9
2019-05-20T06:12:54.542Z,922.1
2019-05-20T06:13:55.669Z,922.1
2019-05-20T06:14:56.817Z,922.1
2019-05-20T06:15:57.947Z,922.1
2019-05-20T06:16:59.085Z,922.1
2019-05-20T06:18:00.481Z,922.1
2019-05-20T06:19:01.872Z,922.1
2019-05-20T06:20:03.279Z,922.1
2019-05-20T06:21:04.714Z,920.5
2019-05-20T06:22:05.465Z,922.1
2019-05-20T06:23:06.594Z,922
2019-05-20T06:24:07.725Z,922
2019-05-20T06:25:08.846Z,922.2
2019-05-20T06:26:10.341Z,922.2
2019-05-20T06:27:11.436Z,922.2
2019-05-20T06:28:12.571Z,922.1
2019-05-20T06:29:13.694Z,922.2
2019-05-20T06:30:14.825Z,922.1
2019-05-20T06:31:16.241Z,922.2
2019-05-20T06:32:17.007Z,922.2
2019-05-20T06:33:18.136Z,922.3
2019-05-20T06:34:19.266Z,922.2
2019-05-20T06:35:20.664Z,922.3
2019-05-20T06:36:32.599Z,922.2
2019-05-20T06:37:22.893Z,922.2
2019-05-20T06:38:24.288Z,922.3
2019-05-20T06:39:25.743Z,922.1
2019-05-20T06:40:27.096Z,922.3
2019-05-20T06:41:28.264Z,922.3
2019-05-20T06:42:29.020Z,922.2
2019-05-20T06:43:30.440Z,922.3
2019-05-20T06:44:31.832Z,922.3
2019-05-20T06:45:33.229Z,922.4
2019-05-20T06:46:34.638Z,922.2
2019-05-20T06:47:36.032Z,922.3
2019-05-20T06:48:37.434Z,922.3
2019-05-20T06:49:38.819Z,922.3
2019-05-20T06:50:40.216Z,922.4
2019-05-20T06:51:41.623Z,922.4
2019-05-20T06:52:42.388Z,922.3
2019-05-20T06:53:43.779Z,922.3
2019-05-20T06:54:45.180Z,922.4
2019-05-20T06:55:46.572Z,922.2
2019-05-20T06:56:47.868Z,922.2
2019-05-20T06:57:49.263Z,920.7
2019-05-20T06:58:50.661Z,922.3
2019-05-20T06:59:52.064Z,922.3
2019-05-20T07:00:53.452Z,922.3
2019-05-20T07:01:54.863Z,922.4
2019-05-20T07:02:57.596Z,922.3
2019-05-20T07:03:56.971Z,922.1
2019-05-20T07:04:58.110Z,922.2
2019-05-20T07:05:59.225Z,922.3
2019-05-20T07:07:00.649Z,922.4
2019-05-20T07:08:02.038Z,922.5
2019-05-20T07:09:03.438Z,922.5
2019-05-20T07:10:04.840Z,922.5
2019-05-20T07:11:06.248Z,922.3
2019-05-20T07:12:07.399Z,922.3
2019-05-20T07:13:07.896Z,922.4
2019-05-20T07:14:09.022Z,922.3
2019-05-20T07:15:10.493Z,922.5
2019-05-20T07:16:11.638Z,921.2
2019-05-20T07:17:13.077Z,922.4
2019-05-20T07:18:14.514Z,922.3
2019-05-20T07:19:15.620Z,920.8
2019-05-20T07:20:16.757Z,922.5
2019-05-20T07:21:17.882Z,922.3
2019-05-20T07:22:19.305Z,922.5
2019-05-20T07:23:20.275Z,922.5
2019-05-20T07:24:21.650Z,922.5
2019-05-20T07:25:23.097Z,922.5
2019-05-20T07:26:24.477Z,922.4
2019-05-20T07:27:25.657Z,922.3
2019-05-20T07:28:27.042Z,921.3
2019-05-20T07:29:28.446Z,922.4
2019-05-20T07:30:29.860Z,922.4
2019-05-20T07:31:31.278Z,922.5
2019-05-20T07:32:32.677Z,922.3
2019-05-20T07:33:33.196Z,922.5
2019-05-20T07:34:34.324Z,922.4
2019-05-20T07:35:36.811Z,922.4
2019-05-20T07:36:37.192Z,922.5
2019-05-20T07:37:38.638Z,922.4
2019-05-20T07:38:40.031Z,922.5
2019-05-20T07:39:41.168Z,922.5
2019-05-20T07:40:42.308Z,922.4
2019-05-20T07:41:47.280Z,922.5
2019-05-20T07:42:44.417Z,922.5
2019-05-20T07:43:45.179Z,922.5
2019-05-20T07:44:46.570Z,922.5
2019-05-20T07:45:47.973Z,922.5
2019-05-20T07:46:49.095Z,922.5
2019-05-20T07:47:50.547Z,922.5
2019-05-20T07:48:52.027Z,922.6
2019-05-20T07:49:53.442Z,922.5
2019-05-20T07:50:54.861Z,922.4
2019-05-20T07:51:56.240Z,922.5
2019-05-20T07:53:00.410Z,922.5
2019-05-20T07:53:58.359Z,922.5
2019-05-20T07:54:59.742Z,922.5
2019-05-20T07:56:01.169Z,922.5
2019-05-20T07:57:02.297Z,922.5
2019-05-20T07:58:03.457Z,922.6
2019-05-20T07:59:04.854Z,922.6
2019-05-20T08:00:06.248Z,922.6
2019-05-20T08:01:07.718Z,922.5
2019-05-20T08:02:09.120Z,922.6
2019-05-20T08:03:10.541Z,922.6
2019-05-20T08:04:11.295Z,922.6
2019-05-20T08:05:12.768Z,922.6
2019-05-20T08:06:14.162Z,922.7
2019-05-20T08:07:27.133Z,922.7
2019-05-20T08:08:16.931Z,922.7
2019-05-20T08:09:18.061Z,922.7
2019-05-20T08:10:19.185Z,922.6
2019-05-20T08:11:20.323Z,922.7
2019-05-20T08:12:21.448Z,922.6
2019-05-20T08:13:22.894Z,922.6
2019-05-20T08:14:23.630Z,922.7
2019-05-20T08:15:24.759Z,922.7
2019-05-20T08:16:25.891Z,922.7
2019-05-20T08:17:27.024Z,922.7
2019-05-20T08:18:28.198Z,922.6
2019-05-20T08:19:29.592Z,922.6
2019-05-20T08:20:30.980Z,922.5
2019-05-20T08:21:32.376Z,922.7
2019-05-20T08:22:33.758Z,922.6
2019-05-20T08:23:35.214Z,922.6
2019-05-20T08:24:35.968Z,922.7
2019-05-20T08:25:37.365Z,922.7
2019-05-20T08:26:38.837Z,922.3
2019-05-20T08:27:40.220Z,922.6
2019-05-20T08:28:41.651Z,922.7
2019-05-20T08:29:42.777Z,922.6
2019-05-20T08:30:44.189Z,922.4
2019-05-20T08:31:45.587Z,922.6
2019-05-20T08:32:46.693Z,922.6
2019-05-20T08:33:47.834Z,922.7
2019-05-20T08:34:48.345Z,922.7
2019-05-20T08:35:49.474Z,922.7
2019-05-20T08:36:50.601Z,922.6
2019-05-20T08:37:52.013Z,922.7
2019-05-20T08:38:53.420Z,922.7
2019-05-20T08:39:54.844Z,922.7
2019-05-20T08:40:55.958Z,922.7
2019-05-20T08:41:57.089Z,922.7
2019-05-20T08:42:58.489Z,922.7
2019-05-20T08:43:59.919Z,922.5
2019-05-20T08:45:00.417Z,922.8
2019-05-20T08:46:01.532Z,922.7
2019-05-20T08:47:02.713Z,922.7
2019-05-20T08:48:03.814Z,922.8
2019-05-20T08:49:10.325Z,922.8
2019-05-20T08:50:10.751Z,922.7
2019-05-20T08:51:06.867Z,922.7
2019-05-20T08:52:08.291Z,922.5
2019-05-20T08:53:09.700Z,922.6
2019-05-20T08:54:11.143Z,922.6
2019-05-20T08:55:11.645Z,922.8
2019-05-20T08:56:12.762Z,922.7
2019-05-20T08:57:13.887Z,922.7
2019-05-20T08:58:15.294Z,922.7
2019-05-20T08:59:16.689Z,922.7
2019-05-20T09:00:22.946Z,922.7
2019-05-20T09:01:18.791Z,922.6
2019-05-20T09:02:20.179Z,922.7
2019-05-20T09:03:21.567Z,922.7
2019-05-20T09:04:22.994Z,922.7
2019-05-20T09:05:23.831Z,922.8
2019-05-20T09:06:26.420Z,922.8
2019-05-20T09:07:25.547Z,922.5
2019-05-20T09:08:26.953Z,922.8
2019-05-20T09:09:29.151Z,922.8
2019-05-20T09:10:29.608Z,922.8
2019-05-20T09:11:31.001Z,922.8
2019-05-20T09:12:32.395Z,922.8
2019-05-20T09:13:33.804Z,922.6
2019-05-20T09:14:34.957Z,922.6
2019-05-20T09:15:35.462Z,922.6
2019-05-20T09:16:36.585Z,922.7
2019-05-20T09:17:38.937Z,922.6
2019-05-20T09:18:38.295Z,922.7
2019-05-20T09:19:39.727Z,922.7
2019-05-20T09:20:41.145Z,922.6
2019-05-20T09:21:42.586Z,922.7
2019-05-20T09:22:43.975Z,922.7
2019-05-20T09:23:48.061Z,922.8
2019-05-20T09:24:46.238Z,922.8
2019-05-20T09:25:46.981Z,922.6
2019-05-20T09:26:48.377Z,922.8
2019-05-20T09:27:49.773Z,922.7
2019-05-20T09:28:51.159Z,922.8
2019-05-20T09:29:52.569Z,922.7
2019-05-20T09:30:53.687Z,922.7
2019-05-20T09:31:54.823Z,922.7
2019-05-20T09:32:59.003Z,922.6
2019-05-20T09:33:57.329Z,922.7
2019-05-20T09:34:58.748Z,922.7
2019-05-20T09:35:59.584Z,922.6
2019-05-20T09:37:00.703Z,922.6
2019-05-20T09:38:16.098Z,922.6
2019-05-20T09:39:03.185Z,922.6
2019-05-20T09:40:04.606Z,922.7
2019-05-20T09:41:05.999Z,922.6
2019-05-20T09:42:07.129Z,922.6
2019-05-20T09:43:08.291Z,922.6
2019-05-20T09:44:09.391Z,922.6
2019-05-20T09:45:10.825Z,922.6
2019-05-20T09:46:13.903Z,922.6
2019-05-20T09:47:12.269Z,922.6
2019-05-20T09:48:13.672Z,922.7
2019-05-20T09:49:15.063Z,922.7
2019-05-20T09:50:16.521Z,922.7
2019-05-20T09:51:17.900Z,922.7
2019-05-20T09:52:19.273Z,922.7
2019-05-20T09:53:20.401Z,922.6
2019-05-20T09:54:21.804Z,922.7
2019-05-20T09:55:23.253Z,922.5
2019-05-20T09:56:24.031Z,922.7
2019-05-20T09:57:25.513Z,922.5
2019-05-20T09:58:27.057Z,922.5
2019-05-20T09:59:41.968Z,922.5
2019-05-20T10:00:28.784Z,922.6
2019-05-20T10:01:30.395Z,922.8
2019-05-20T10:02:43.714Z,922.7
2019-05-20T10:03:31.738Z,922.7
2019-05-20T10:04:32.855Z,922.7
2019-05-20T10:05:36.897Z,922.7
2019-05-20T10:06:35.126Z,922.7
2019-05-20T10:07:36.253Z,922.8
2019-05-20T10:08:43.426Z,922.8
2019-05-20T10:09:38.531Z,922.7
2019-05-20T10:10:39.681Z,922.8
2019-05-20T10:11:40.805Z,922.8
2019-05-20T10:12:46.311Z,922.8
2019-05-20T10:13:42.653Z,922.9
2019-05-20T10:14:43.780Z,922.9
2019-05-20T10:15:45.461Z,922.9
2019-05-20T10:16:45.959Z,922.9
2019-05-20T10:17:47.090Z,922.8
2019-05-20T10:18:48.207Z,922.9
2019-05-20T10:19:49.343Z,922.8
2019-05-20T10:20:50.753Z,922.8
2019-05-20T10:21:52.265Z,922.8
2019-05-20T10:22:53.753Z,922.8
2019-05-20T10:23:54.918Z,922.8
2019-05-20T10:24:56.066Z,922.9
2019-05-20T10:25:57.463Z,922.9
2019-05-20T10:26:58.253Z,922.8
2019-05-20T10:28:03.250Z,922.6
2019-05-20T10:29:00.622Z,922.7
2019-05-20T10:30:02.038Z,922.9
2019-05-20T10:31:03.158Z,922.8
2019-05-20T10:32:04.288Z,922.9
2019-05-20T10:33:08.955Z,923
2019-05-20T10:34:06.050Z,922.9
2019-05-20T10:35:07.209Z,923
2019-05-20T10:36:08.321Z,923
2019-05-20T10:37:08.834Z,923
2019-05-20T10:38:09.968Z,923
2019-05-20T10:39:11.108Z,923
2019-05-20T10:40:12.501Z,923
2019-05-20T10:41:13.895Z,922.8
2019-05-20T10:42:15.295Z,922.9
2019-05-20T10:43:16.690Z,922.8
2019-05-20T10:44:18.089Z,922.9
2019-05-20T10:45:19.505Z,922.9
2019-05-20T10:46:20.907Z,922.7
2019-05-20T10:47:21.403Z,922.9
2019-05-20T10:48:22.532Z,922.9
2019-05-20T10:49:23.932Z,922.9
2019-05-20T10:50:25.342Z,922.8
2019-05-20T10:51:26.737Z,923
2019-05-20T10:52:28.130Z,923
2019-05-20T10:53:33.827Z,923
2019-05-20T10:54:30.174Z,922.9
2019-05-20T10:55:31.347Z,922.9
2019-05-20T10:56:32.708Z,923
2019-05-20T10:57:33.473Z,922.9
2019-05-20T10:58:34.606Z,922.9
2019-05-20T10:59:35.734Z,922.8
2019-05-20T11:00:36.880Z,923
2019-05-20T11:01:38.007Z,922.9
2019-05-20T11:02:39.140Z,922.8
2019-05-20T11:03:40.264Z,923.1
2019-05-20T11:04:41.662Z,923.1
2019-05-20T11:05:43.074Z,923
2019-05-20T11:06:44.479Z,923.1
2019-05-20T11:07:45.283Z,923.1
2019-05-20T11:08:46.656Z,923
2019-05-20T11:09:47.789Z,923
2019-05-20T11:10:48.940Z,923
2019-05-20T11:11:50.342Z,923.1
2019-05-20T11:12:51.738Z,923.2
2019-05-20T11:13:53.129Z,923
2019-05-20T11:14:54.534Z,923.1
2019-05-20T11:15:58.701Z,923.2
2019-05-20T11:16:57.153Z,923
2019-05-20T11:17:57.650Z,923.1
2019-05-20T11:18:58.778Z,923.1
2019-05-20T11:19:59.903Z,923.1
2019-05-20T11:21:01.317Z,923
2019-05-20T11:22:02.717Z,922.9
2019-05-20T11:23:06.756Z,923
2019-05-20T11:24:04.861Z,923.1
2019-05-20T11:25:06.316Z,923
2019-05-20T11:26:07.709Z,923
2019-05-20T11:27:09.105Z,922.8
2019-05-20T11:28:11.875Z,923
2019-05-20T11:29:11.382Z,923
2019-05-20T11:30:12.541Z,922.9
2019-05-20T11:31:13.656Z,923
2019-05-20T11:32:14.809Z,923
2019-05-20T11:33:15.916Z,923
2019-05-20T11:34:17.064Z,921.4
2019-05-20T11:35:18.456Z,923.1
2019-05-20T11:36:19.851Z,923.1
2019-05-20T11:37:21.245Z,922.9
2019-05-20T11:38:22.010Z,923
2019-05-20T11:39:33.068Z,923.1
2019-05-20T11:40:23.686Z,923
2019-05-20T11:41:47.006Z,923.1
2019-05-20T11:42:25.656Z,923
2019-05-20T11:43:27.056Z,923.1
2019-05-20T11:44:28.197Z,923.1
2019-05-20T11:45:29.345Z,923.1
2019-05-20T11:46:30.738Z,923
2019-05-20T11:47:32.127Z,923.1
2019-05-20T11:48:32.630Z,923.1
2019-05-20T11:49:33.756Z,923.2
2019-05-20T11:50:34.906Z,923.2
2019-05-20T11:51:36.302Z,923
2019-05-20T11:52:38.029Z,923.1
2019-05-20T11:53:38.408Z,923.2
2019-05-20T11:54:39.538Z,923
2019-05-20T11:55:40.678Z,923.1
2019-05-20T11:56:42.084Z,923.1
2019-05-20T11:57:43.478Z,923.1
2019-05-20T11:58:43.758Z,923
2019-05-20T11:59:44.891Z,923.1
2019-05-20T12:00:46.301Z,923
2019-05-20T12:01:47.710Z,923.1
2019-05-20T12:02:49.104Z,923
2019-05-20T12:03:50.496Z,923
2019-05-20T12:04:51.942Z,923
2019-05-20T12:05:53.461Z,923
2019-05-20T12:06:54.587Z,923
2019-05-20T12:07:55.715Z,923
2019-05-20T12:08:56.225Z,923
2019-05-20T12:09:57.355Z,923.1
2019-05-20T12:10:58.772Z,923
2019-05-20T12:12:00.168Z,923
2019-05-20T12:13:01.303Z,923
2019-05-20T12:14:02.698Z,923
2019-05-20T12:15:04.917Z,923
2019-05-20T12:16:04.907Z,923.1
2019-05-20T12:17:06.020Z,923.1
2019-05-20T12:18:07.154Z,923
2019-05-20T12:19:07.925Z,922.9
2019-05-20T12:20:12.902Z,922.9
2019-05-20T12:21:10.282Z,922.8
2019-05-20T12:22:11.673Z,923
2019-05-20T12:23:13.071Z,922.9
2019-05-20T12:24:14.472Z,922.9
2019-05-20T12:25:15.598Z,923
2019-05-20T12:26:16.748Z,922.9
2019-05-20T12:27:17.874Z,923
2019-05-20T12:28:19.008Z,923
2019-05-20T12:29:19.758Z,922.8
2019-05-20T12:30:21.629Z,923
2019-05-20T12:31:22.001Z,922.9
2019-05-20T12:32:23.305Z,923
2019-05-20T12:33:25.318Z,923
2019-05-20T12:34:25.710Z,923
2019-05-20T12:35:26.855Z,923
2019-05-20T12:36:28.256Z,923
2019-05-20T12:37:29.649Z,922.9
2019-05-20T12:38:31.051Z,923
2019-05-20T12:39:32.062Z,923
2019-05-20T12:40:32.465Z,923
2019-05-20T12:41:33.918Z,923.1
2019-05-20T12:42:35.309Z,922.8
2019-05-20T12:43:36.706Z,923
2019-05-20T12:44:38.102Z,921.3
2019-05-20T12:45:39.553Z,923
2019-05-20T12:46:40.955Z,923
2019-05-20T12:47:42.107Z,923.1
2019-05-20T12:48:43.347Z,923
2019-05-20T12:49:44.352Z,923
2019-05-20T12:50:45.508Z,923
2019-05-20T12:51:46.898Z,923
2019-05-20T12:52:48.295Z,923.1
2019-05-20T12:53:49.697Z,923
2019-05-20T12:55:05.841Z,923.1
2019-05-20T12:55:52.093Z,923.1
2019-05-20T12:56:53.490Z,923.1
2019-05-20T12:57:54.879Z,923.1
2019-05-20T12:58:56.285Z,923.1
2019-05-20T12:59:57.053Z,923.1
2019-05-20T13:00:58.455Z,923
2019-05-20T13:01:59.902Z,923.1
2019-05-20T13:03:01.037Z,923.1
2019-05-20T13:04:02.423Z,923.1
2019-05-20T13:05:03.834Z,922.9
2019-05-20T13:06:04.985Z,923
2019-05-20T13:07:06.375Z,923.1
2019-05-20T13:08:07.789Z,923.1
2019-05-20T13:09:09.197Z,923.2
2019-05-20T13:10:26.504Z,923.2
2019-05-20T13:11:10.954Z,923.1
2019-05-20T13:12:12.348Z,923.2
2019-05-20T13:13:13.743Z,923.2
2019-05-20T13:14:15.142Z,923.2
2019-05-20T13:15:17.005Z,923.1